Terminal Aerodrome Forecast
Issued by NWS

Home | Current Version | Previous Version | Text Only | Print | Product List | Glossary Off
Versions: 1 2 3 4 5 6 7 8 9 10 11 12 13 14 15 16

000
FTUS43 KMPX 260500
TAFAXN
TAF
KAXN 260520Z 2606/2706 35008KT 6SM -SHSN BR OVC025
      TEMPO 2606/2609 2SM -SN BR OVC015
     FM260900 35009KT 6SM BR OVC008
     FM261800 34010KT P6SM OVC014=

USA.gov is the U.S. government's official web portal to all federal, state and local government web resources and services.